sensor_id;sensor_type;location;lat;lon;timestamp;P1;durP1;ratioP1;P2;durP2;ratioP2
57093;SDS011;42970;50.996;3.706;2024-01-30T00:00:02;8.90;;;5.47;;
57093;SDS011;42970;50.996;3.706;2024-01-30T00:02:29;7.55;;;4.60;;
57093;SDS011;42970;50.996;3.706;2024-01-30T00:04:54;10.13;;;5.15;;
57093;SDS011;42970;50.996;3.706;2024-01-30T00:07:19;9.65;;;5.53;;
57093;SDS011;42970;50.996;3.706;2024-01-30T00:09:46;9.13;;;5.35;;
57093;SDS011;42970;50.996;3.706;2024-01-30T00:12:11;11.35;;;5.63;;
57093;SDS011;42970;50.996;3.706;2024-01-30T00:14:37;10.13;;;5.22;;
57093;SDS011;42970;50.996;3.706;2024-01-30T00:17:02;18.35;;;5.65;;
57093;SDS011;42970;50.996;3.706;2024-01-30T00:19:27;13.27;;;5.75;;
57093;SDS011;42970;50.996;3.706;2024-01-30T00:21:52;12.60;;;5.35;;
57093;SDS011;42970;50.996;3.706;2024-01-30T00:24:18;10.52;;;5.68;;
57093;SDS011;42970;50.996;3.706;2024-01-30T00:26:43;12.45;;;4.60;;
57093;SDS011;42970;50.996;3.706;2024-01-30T00:29:08;11.27;;;6.03;;
57093;SDS011;42970;50.996;3.706;2024-01-30T00:31:33;10.85;;;5.40;;
57093;SDS011;42970;50.996;3.706;2024-01-30T00:33:59;10.32;;;5.15;;
57093;SDS011;42970;50.996;3.706;2024-01-30T00:36:24;11.65;;;5.88;;
57093;SDS011;42970;50.996;3.706;2024-01-30T00:38:50;12.07;;;5.30;;
57093;SDS011;42970;50.996;3.706;2024-01-30T00:41:17;11.75;;;6.10;;
57093;SDS011;42970;50.996;3.706;2024-01-30T00:43:42;9.57;;;5.60;;
57093;SDS011;42970;50.996;3.706;2024-01-30T00:46:07;17.77;;;6.22;;
57093;SDS011;42970;50.996;3.706;2024-01-30T00:48:33;15.10;;;5.22;;
57093;SDS011;42970;50.996;3.706;2024-01-30T00:50:58;15.90;;;6.28;;
57093;SDS011;42970;50.996;3.706;2024-01-30T00:53:23;16.85;;;5.70;;
57093;SDS011;42970;50.996;3.706;2024-01-30T00:55:48;10.23;;;5.80;;
57093;SDS011;42970;50.996;3.706;2024-01-30T00:58:13;12.60;;;5.72;;
57093;SDS011;42970;50.996;3.706;2024-01-30T01:00:39;9.73;;;5.15;;
57093;SDS011;42970;50.996;3.706;2024-01-30T01:03:04;12.68;;;6.13;;
57093;SDS011;42970;50.996;3.706;2024-01-30T01:05:30;11.25;;;5.45;;
57093;SDS011;42970;50.996;3.706;2024-01-30T01:07:55;10.77;;;5.32;;
57093;SDS011;42970;50.996;3.706;2024-01-30T01:10:20;9.95;;;5.65;;
57093;SDS011;42970;50.996;3.706;2024-01-30T01:12:45;10.50;;;5.88;;
57093;SDS011;42970;50.996;3.706;2024-01-30T01:15:11;11.07;;;5.57;;
57093;SDS011;42970;50.996;3.706;2024-01-30T01:17:37;10.00;;;5.43;;
57093;SDS011;42970;50.996;3.706;2024-01-30T01:20:02;10.25;;;5.53;;
57093;SDS011;42970;50.996;3.706;2024-01-30T01:22:28;15.82;;;6.28;;
57093;SDS011;42970;50.996;3.706;2024-01-30T01:24:53;13.27;;;6.00;;
57093;SDS011;42970;50.996;3.706;2024-01-30T01:27:19;11.85;;;6.40;;
57093;SDS011;42970;50.996;3.706;2024-01-30T01:29:44;18.15;;;6.13;;
57093;SDS011;42970;50.996;3.706;2024-01-30T01:32:10;13.50;;;6.63;;
57093;SDS011;42970;50.996;3.706;2024-01-30T01:34:35;9.05;;;5.70;;
57093;SDS011;42970;50.996;3.706;2024-01-30T01:37:01;12.63;;;6.15;;
57093;SDS011;42970;50.996;3.706;2024-01-30T01:39:26;12.15;;;5.53;;
57093;SDS011;42970;50.996;3.706;2024-01-30T01:41:51;12.07;;;6.03;;
57093;SDS011;42970;50.996;3.706;2024-01-30T01:44:17;9.20;;;5.85;;
57093;SDS011;42970;50.996;3.706;2024-01-30T01:46:42;11.45;;;6.15;;
57093;SDS011;42970;50.996;3.706;2024-01-30T01:49:07;10.32;;;6.05;;
57093;SDS011;42970;50.996;3.706;2024-01-30T01:51:34;11.07;;;5.88;;
57093;SDS011;42970;50.996;3.706;2024-01-30T01:54:01;14.75;;;6.63;;
57093;SDS011;42970;50.996;3.706;2024-01-30T01:56:27;10.95;;;5.63;;
57093;SDS011;42970;50.996;3.706;2024-01-30T01:58:54;13.45;;;5.68;;
57093;SDS011;42970;50.996;3.706;2024-01-30T02:01:19;16.33;;;5.97;;
57093;SDS011;42970;50.996;3.706;2024-01-30T02:03:46;11.40;;;5.55;;
57093;SDS011;42970;50.996;3.706;2024-01-30T02:06:11;9.48;;;5.68;;
57093;SDS011;42970;50.996;3.706;2024-01-30T02:08:37;14.23;;;5.80;;
57093;SDS011;42970;50.996;3.706;2024-01-30T02:11:02;14.20;;;6.60;;
57093;SDS011;42970;50.996;3.706;2024-01-30T02:13:28;12.82;;;6.00;;
57093;SDS011;42970;50.996;3.706;2024-01-30T02:15:53;11.25;;;5.40;;
57093;SDS011;42970;50.996;3.706;2024-01-30T02:18:19;10.88;;;5.53;;
57093;SDS011;42970;50.996;3.706;2024-01-30T02:20:45;13.77;;;6.05;;
57093;SDS011;42970;50.996;3.706;2024-01-30T02:23:11;10.98;;;5.70;;
57093;SDS011;42970;50.996;3.706;2024-01-30T02:25:38;12.02;;;5.90;;
57093;SDS011;42970;50.996;3.706;2024-01-30T02:28:04;12.45;;;5.55;;
57093;SDS011;42970;50.996;3.706;2024-01-30T02:30:29;10.68;;;5.20;;
57093;SDS011;42970;50.996;3.706;2024-01-30T02:32:54;11.38;;;5.72;;
57093;SDS011;42970;50.996;3.706;2024-01-30T02:35:19;8.45;;;4.97;;
57093;SDS011;42970;50.996;3.706;2024-01-30T02:37:45;10.13;;;5.63;;
57093;SDS011;42970;50.996;3.706;2024-01-30T02:40:10;11.15;;;6.25;;
57093;SDS011;42970;50.996;3.706;2024-01-30T02:42:35;14.13;;;6.05;;
57093;SDS011;42970;50.996;3.706;2024-01-30T02:45:00;12.02;;;5.60;;
57093;SDS011;42970;50.996;3.706;2024-01-30T02:47:26;15.70;;;5.78;;
57093;SDS011;42970;50.996;3.706;2024-01-30T02:49:51;9.73;;;5.80;;
57093;SDS011;42970;50.996;3.706;2024-01-30T02:52:16;13.57;;;6.13;;
57093;SDS011;42970;50.996;3.706;2024-01-30T02:54:41;10.93;;;5.60;;
57093;SDS011;42970;50.996;3.706;2024-01-30T02:57:07;11.45;;;5.75;;
57093;SDS011;42970;50.996;3.706;2024-01-30T02:59:33;13.05;;;6.20;;
57093;SDS011;42970;50.996;3.706;2024-01-30T03:02:00;10.82;;;5.90;;
57093;SDS011;42970;50.996;3.706;2024-01-30T03:04:26;14.05;;;6.85;;
57093;SDS011;42970;50.996;3.706;2024-01-30T03:06:51;8.23;;;5.85;;
57093;SDS011;42970;50.996;3.706;2024-01-30T03:09:16;11.25;;;4.85;;
57093;SDS011;42970;50.996;3.706;2024-01-30T03:11:42;11.05;;;5.80;;
57093;SDS011;42970;50.996;3.706;2024-01-30T03:14:07;11.38;;;6.18;;
57093;SDS011;42970;50.996;3.706;2024-01-30T03:16:35;10.52;;;6.13;;
57093;SDS011;42970;50.996;3.706;2024-01-30T03:19:01;12.07;;;6.85;;
57093;SDS011;42970;50.996;3.706;2024-01-30T03:21:27;12.48;;;6.25;;
57093;SDS011;42970;50.996;3.706;2024-01-30T03:23:52;12.45;;;5.85;;
57093;SDS011;42970;50.996;3.706;2024-01-30T03:26:18;13.05;;;5.82;;
57093;SDS011;42970;50.996;3.706;2024-01-30T03:28:43;13.02;;;5.95;;
57093;SDS011;42970;50.996;3.706;2024-01-30T03:31:08;11.13;;;6.03;;
57093;SDS011;42970;50.996;3.706;2024-01-30T03:33:34;10.38;;;5.50;;
57093;SDS011;42970;50.996;3.706;2024-01-30T03:36:02;12.10;;;6.25;;
57093;SDS011;42970;50.996;3.706;2024-01-30T03:38:27;10.85;;;5.93;;
57093;SDS011;42970;50.996;3.706;2024-01-30T03:40:53;10.18;;;4.82;;
57093;SDS011;42970;50.996;3.706;2024-01-30T03:43:18;9.95;;;6.00;;
57093;SDS011;42970;50.996;3.706;2024-01-30T03:45:43;9.18;;;5.00;;
57093;SDS011;42970;50.996;3.706;2024-01-30T03:48:08;11.73;;;6.25;;
57093;SDS011;42970;50.996;3.706;2024-01-30T03:50:33;13.27;;;5.97;;
57093;SDS011;42970;50.996;3.706;2024-01-30T03:52:59;13.77;;;6.38;;
57093;SDS011;42970;50.996;3.706;2024-01-30T03:55:25;13.13;;;5.70;;
57093;SDS011;42970;50.996;3.706;2024-01-30T03:57:51;13.02;;;6.38;;
57093;SDS011;42970;50.996;3.706;2024-01-30T04:00:16;16.85;;;6.00;;
57093;SDS011;42970;50.996;3.706;2024-01-30T04:02:41;12.27;;;6.43;;
57093;SDS011;42970;50.996;3.706;2024-01-30T04:05:06;19.63;;;5.60;;
57093;SDS011;42970;50.996;3.706;2024-01-30T04:07:32;11.88;;;6.10;;
57093;SDS011;42970;50.996;3.706;2024-01-30T04:09:57;15.25;;;5.90;;
57093;SDS011;42970;50.996;3.706;2024-01-30T04:12:22;15.48;;;6.25;;
57093;SDS011;42970;50.996;3.706;2024-01-30T04:14:47;13.85;;;6.47;;
57093;SDS011;42970;50.996;3.706;2024-01-30T04:17:13;11.77;;;6.85;;
57093;SDS011;42970;50.996;3.706;2024-01-30T04:19:38;12.13;;;6.53;;
57093;SDS011;42970;50.996;3.706;2024-01-30T04:22:04;13.35;;;6.38;;
57093;SDS011;42970;50.996;3.706;2024-01-30T04:24:29;17.77;;;6.85;;
57093;SDS011;42970;50.996;3.706;2024-01-30T04:26:54;13.13;;;6.28;;
57093;SDS011;42970;50.996;3.706;2024-01-30T04:29:19;12.18;;;6.00;;
57093;SDS011;42970;50.996;3.706;2024-01-30T04:31:45;11.82;;;6.65;;
57093;SDS011;42970;50.996;3.706;2024-01-30T04:34:10;13.45;;;6.97;;
57093;SDS011;42970;50.996;3.706;2024-01-30T04:36:35;11.57;;;6.63;;
57093;SDS011;42970;50.996;3.706;2024-01-30T04:39:00;14.35;;;7.25;;
57093;SDS011;42970;50.996;3.706;2024-01-30T04:41:26;15.45;;;7.22;;
57093;SDS011;42970;50.996;3.706;2024-01-30T04:43:53;15.50;;;7.30;;
57093;SDS011;42970;50.996;3.706;2024-01-30T04:46:18;14.52;;;6.47;;
57093;SDS011;42970;50.996;3.706;2024-01-30T04:48:44;12.95;;;6.68;;
57093;SDS011;42970;50.996;3.706;2024-01-30T04:51:09;11.30;;;6.72;;
57093;SDS011;42970;50.996;3.706;2024-01-30T04:53:34;14.98;;;6.72;;
57093;SDS011;42970;50.996;3.706;2024-01-30T04:56:00;12.63;;;6.68;;
57093;SDS011;42970;50.996;3.706;2024-01-30T04:58:25;12.10;;;6.28;;
57093;SDS011;42970;50.996;3.706;2024-01-30T05:00:50;11.85;;;6.10;;
57093;SDS011;42970;50.996;3.706;2024-01-30T05:03:17;11.32;;;6.32;;
57093;SDS011;42970;50.996;3.706;2024-01-30T05:05:42;11.13;;;5.97;;
57093;SDS011;42970;50.996;3.706;2024-01-30T05:08:07;12.57;;;6.10;;
57093;SDS011;42970;50.996;3.706;2024-01-30T05:10:33;15.88;;;6.45;;
57093;SDS011;42970;50.996;3.706;2024-01-30T05:12:58;15.75;;;6.03;;
57093;SDS011;42970;50.996;3.706;2024-01-30T05:15:23;13.32;;;6.10;;
57093;SDS011;42970;50.996;3.706;2024-01-30T05:17:48;11.38;;;6.38;;
57093;SDS011;42970;50.996;3.706;2024-01-30T05:20:13;23.15;;;6.30;;
57093;SDS011;42970;50.996;3.706;2024-01-30T05:22:39;13.75;;;6.88;;
57093;SDS011;42970;50.996;3.706;2024-01-30T05:25:09;11.05;;;6.18;;
57093;SDS011;42970;50.996;3.706;2024-01-30T05:27:35;11.82;;;5.88;;
57093;SDS011;42970;50.996;3.706;2024-01-30T05:30:00;14.63;;;6.60;;
57093;SDS011;42970;50.996;3.706;2024-01-30T05:32:25;18.63;;;6.55;;
57093;SDS011;42970;50.996;3.706;2024-01-30T05:34:50;11.02;;;6.78;;
57093;SDS011;42970;50.996;3.706;2024-01-30T05:37:16;11.50;;;6.22;;
57093;SDS011;42970;50.996;3.706;2024-01-30T05:39:42;13.15;;;6.43;;
57093;SDS011;42970;50.996;3.706;2024-01-30T05:42:08;11.50;;;6.30;;
57093;SDS011;42970;50.996;3.706;2024-01-30T05:44:33;12.88;;;6.35;;
57093;SDS011;42970;50.996;3.706;2024-01-30T05:46:58;18.40;;;6.07;;
57093;SDS011;42970;50.996;3.706;2024-01-30T05:49:23;10.77;;;5.68;;
57093;SDS011;42970;50.996;3.706;2024-01-30T05:51:48;14.30;;;6.72;;
57093;SDS011;42970;50.996;3.706;2024-01-30T05:54:14;14.98;;;6.35;;
57093;SDS011;42970;50.996;3.706;2024-01-30T05:56:39;12.77;;;6.45;;
57093;SDS011;42970;50.996;3.706;2024-01-30T05:59:04;11.75;;;5.72;;
57093;SDS011;42970;50.996;3.706;2024-01-30T06:01:30;12.20;;;6.32;;
57093;SDS011;42970;50.996;3.706;2024-01-30T06:03:55;16.40;;;6.35;;
57093;SDS011;42970;50.996;3.706;2024-01-30T06:06:20;16.70;;;6.25;;
57093;SDS011;42970;50.996;3.706;2024-01-30T06:08:45;13.85;;;6.20;;
57093;SDS011;42970;50.996;3.706;2024-01-30T06:11:11;14.00;;;6.20;;
57093;SDS011;42970;50.996;3.706;2024-01-30T06:13:37;8.60;;;5.05;;
57093;SDS011;42970;50.996;3.706;2024-01-30T06:16:02;11.15;;;6.05;;
57093;SDS011;42970;50.996;3.706;2024-01-30T06:18:28;12.50;;;6.25;;
57093;SDS011;42970;50.996;3.706;2024-01-30T06:20:55;13.48;;;5.68;;
57093;SDS011;42970;50.996;3.706;2024-01-30T06:23:20;12.50;;;6.07;;
57093;SDS011;42970;50.996;3.706;2024-01-30T06:25:46;13.93;;;6.03;;
57093;SDS011;42970;50.996;3.706;2024-01-30T06:28:12;10.82;;;6.35;;
57093;SDS011;42970;50.996;3.706;2024-01-30T06:30:37;16.42;;;6.18;;
57093;SDS011;42970;50.996;3.706;2024-01-30T06:33:02;10.98;;;6.00;;
57093;SDS011;42970;50.996;3.706;2024-01-30T06:35:27;11.50;;;6.60;;
57093;SDS011;42970;50.996;3.706;2024-01-30T06:37:53;12.27;;;6.90;;
57093;SDS011;42970;50.996;3.706;2024-01-30T06:40:19;10.95;;;5.90;;
57093;SDS011;42970;50.996;3.706;2024-01-30T06:42:44;15.00;;;6.57;;
57093;SDS011;42970;50.996;3.706;2024-01-30T06:45:09;13.10;;;5.90;;
57093;SDS011;42970;50.996;3.706;2024-01-30T06:47:35;13.85;;;6.57;;
57093;SDS011;42970;50.996;3.706;2024-01-30T06:50:00;10.32;;;6.60;;
57093;SDS011;42970;50.996;3.706;2024-01-30T06:52:27;9.40;;;5.28;;
57093;SDS011;42970;50.996;3.706;2024-01-30T06:54:52;12.05;;;6.32;;
57093;SDS011;42970;50.996;3.706;2024-01-30T06:57:17;10.65;;;6.40;;
57093;SDS011;42970;50.996;3.706;2024-01-30T06:59:42;21.92;;;6.32;;
57093;SDS011;42970;50.996;3.706;2024-01-30T07:02:12;11.20;;;6.28;;
57093;SDS011;42970;50.996;3.706;2024-01-30T07:04:37;14.27;;;6.80;;
57093;SDS011;42970;50.996;3.706;2024-01-30T07:07:02;11.48;;;6.32;;
57093;SDS011;42970;50.996;3.706;2024-01-30T07:09:29;17.70;;;6.18;;
57093;SDS011;42970;50.996;3.706;2024-01-30T07:11:55;16.27;;;6.07;;
57093;SDS011;42970;50.996;3.706;2024-01-30T07:14:20;15.52;;;6.65;;
57093;SDS011;42970;50.996;3.706;2024-01-30T07:16:45;11.77;;;5.53;;
57093;SDS011;42970;50.996;3.706;2024-01-30T07:19:11;13.10;;;6.45;;
57093;SDS011;42970;50.996;3.706;2024-01-30T07:21:36;11.13;;;6.43;;
57093;SDS011;42970;50.996;3.706;2024-01-30T07:24:01;12.52;;;6.72;;
57093;SDS011;42970;50.996;3.706;2024-01-30T07:26:27;15.23;;;7.32;;
57093;SDS011;42970;50.996;3.706;2024-01-30T07:28:52;12.73;;;5.32;;
57093;SDS011;42970;50.996;3.706;2024-01-30T07:31:17;14.48;;;6.57;;
57093;SDS011;42970;50.996;3.706;2024-01-30T07:33:45;8.18;;;4.90;;
57093;SDS011;42970;50.996;3.706;2024-01-30T07:36:10;17.00;;;5.93;;
57093;SDS011;42970;50.996;3.706;2024-01-30T07:38:36;11.63;;;4.75;;
57093;SDS011;42970;50.996;3.706;2024-01-30T07:41:01;12.35;;;6.55;;
57093;SDS011;42970;50.996;3.706;2024-01-30T07:43:26;12.70;;;5.50;;
57093;SDS011;42970;50.996;3.706;2024-01-30T07:45:51;9.88;;;6.43;;
57093;SDS011;42970;50.996;3.706;2024-01-30T07:48:17;14.50;;;6.22;;
57093;SDS011;42970;50.996;3.706;2024-01-30T07:50:42;18.80;;;6.70;;
57093;SDS011;42970;50.996;3.706;2024-01-30T07:53:07;13.02;;;6.60;;
57093;SDS011;42970;50.996;3.706;2024-01-30T07:55:33;10.25;;;5.60;;
57093;SDS011;42970;50.996;3.706;2024-01-30T07:57:58;15.40;;;6.82;;
57093;SDS011;42970;50.996;3.706;2024-01-30T08:00:25;12.45;;;5.72;;
57093;SDS011;42970;50.996;3.706;2024-01-30T08:02:50;12.55;;;7.03;;
57093;SDS011;42970;50.996;3.706;2024-01-30T08:05:15;16.42;;;7.00;;
57093;SDS011;42970;50.996;3.706;2024-01-30T08:07:41;13.80;;;7.05;;
57093;SDS011;42970;50.996;3.706;2024-01-30T08:10:07;11.13;;;7.28;;
57093;SDS011;42970;50.996;3.706;2024-01-30T08:12:32;16.85;;;6.57;;
57093;SDS011;42970;50.996;3.706;2024-01-30T08:14:57;12.75;;;5.78;;
57093;SDS011;42970;50.996;3.706;2024-01-30T08:17:23;17.83;;;6.20;;
57093;SDS011;42970;50.996;3.706;2024-01-30T08:19:48;14.68;;;5.93;;
57093;SDS011;42970;50.996;3.706;2024-01-30T08:22:13;13.25;;;6.10;;
57093;SDS011;42970;50.996;3.706;2024-01-30T08:24:39;9.73;;;4.60;;
57093;SDS011;42970;50.996;3.706;2024-01-30T08:27:05;12.82;;;5.28;;
57093;SDS011;42970;50.996;3.706;2024-01-30T08:29:31;8.40;;;5.32;;
57093;SDS011;42970;50.996;3.706;2024-01-30T08:31:57;8.50;;;3.80;;
57093;SDS011;42970;50.996;3.706;2024-01-30T08:34:24;12.35;;;6.55;;
57093;SDS011;42970;50.996;3.706;2024-01-30T08:36:49;14.48;;;7.10;;
57093;SDS011;42970;50.996;3.706;2024-01-30T08:39:15;6.72;;;4.47;;
57093;SDS011;42970;50.996;3.706;2024-01-30T08:41:40;13.55;;;7.45;;
57093;SDS011;42970;50.996;3.706;2024-01-30T08:44:06;16.70;;;6.80;;
57093;SDS011;42970;50.996;3.706;2024-01-30T08:46:31;17.83;;;7.85;;
57093;SDS011;42970;50.996;3.706;2024-01-30T08:48:56;13.40;;;5.60;;
57093;SDS011;42970;50.996;3.706;2024-01-30T08:51:21;11.00;;;5.72;;
57093;SDS011;42970;50.996;3.706;2024-01-30T08:53:47;16.88;;;6.40;;
57093;SDS011;42970;50.996;3.706;2024-01-30T08:56:12;10.80;;;5.45;;
57093;SDS011;42970;50.996;3.706;2024-01-30T08:58:38;15.43;;;5.30;;
57093;SDS011;42970;50.996;3.706;2024-01-30T09:01:03;12.93;;;5.63;;
57093;SDS011;42970;50.996;3.706;2024-01-30T09:03:30;11.13;;;5.65;;
57093;SDS011;42970;50.996;3.706;2024-01-30T09:05:55;12.45;;;6.00;;
57093;SDS011;42970;50.996;3.706;2024-01-30T09:08:20;12.57;;;4.93;;
57093;SDS011;42970;50.996;3.706;2024-01-30T09:10:46;15.00;;;4.50;;
57093;SDS011;42970;50.996;3.706;2024-01-30T09:13:11;12.60;;;6.63;;
57093;SDS011;42970;50.996;3.706;2024-01-30T09:15:36;11.60;;;6.22;;
57093;SDS011;42970;50.996;3.706;2024-01-30T09:18:02;9.35;;;4.32;;
57093;SDS011;42970;50.996;3.706;2024-01-30T09:20:27;7.10;;;3.15;;
57093;SDS011;42970;50.996;3.706;2024-01-30T09:22:52;12.77;;;5.90;;
57093;SDS011;42970;50.996;3.706;2024-01-30T09:25:17;7.63;;;4.03;;
57093;SDS011;42970;50.996;3.706;2024-01-30T09:27:43;9.23;;;3.67;;
57093;SDS011;42970;50.996;3.706;2024-01-30T09:30:09;11.82;;;3.30;;
57093;SDS011;42970;50.996;3.706;2024-01-30T09:32:34;8.90;;;3.35;;
57093;SDS011;42970;50.996;3.706;2024-01-30T09:34:59;3.83;;;2.17;;
57093;SDS011;42970;50.996;3.706;2024-01-30T09:37:25;8.93;;;2.63;;
57093;SDS011;42970;50.996;3.706;2024-01-30T09:39:50;5.72;;;2.63;;
57093;SDS011;42970;50.996;3.706;2024-01-30T09:44:40;3.38;;;1.48;;
57093;SDS011;42970;50.996;3.706;2024-01-30T09:47:08;1.83;;;1.25;;
57093;SDS011;42970;50.996;3.706;2024-01-30T09:49:33;8.02;;;1.90;;
57093;SDS011;42970;50.996;3.706;2024-01-30T09:51:59;4.28;;;1.45;;
57093;SDS011;42970;50.996;3.706;2024-01-30T09:54:24;4.50;;;0.98;;
57093;SDS011;42970;50.996;3.706;2024-01-30T09:56:49;6.70;;;1.58;;
57093;SDS011;42970;50.996;3.706;2024-01-30T09:59:15;11.30;;;1.95;;
57093;SDS011;42970;50.996;3.706;2024-01-30T10:01:40;8.00;;;2.45;;
57093;SDS011;42970;50.996;3.706;2024-01-30T10:04:06;3.22;;;1.15;;
57093;SDS011;42970;50.996;3.706;2024-01-30T10:06:32;3.08;;;1.17;;
57093;SDS011;42970;50.996;3.706;2024-01-30T10:08:57;1.25;;;0.80;;
57093;SDS011;42970;50.996;3.706;2024-01-30T10:11:22;0.57;;;0.55;;
57093;SDS011;42970;50.996;3.706;2024-01-30T10:13:47;1.95;;;1.25;;
57093;SDS011;42970;50.996;3.706;2024-01-30T10:16:15;1.88;;;1.40;;
57093;SDS011;42970;50.996;3.706;2024-01-30T10:18:42;2.42;;;0.80;;
57093;SDS011;42970;50.996;3.706;2024-01-30T10:21:07;3.17;;;1.27;;
57093;SDS011;42970;50.996;3.706;2024-01-30T10:23:33;1.75;;;1.40;;
57093;SDS011;42970;50.996;3.706;2024-01-30T10:25:58;1.40;;;0.70;;
57093;SDS011;42970;50.996;3.706;2024-01-30T10:28:26;4.60;;;1.13;;
57093;SDS011;42970;50.996;3.706;2024-01-30T10:31:00;3.35;;;0.80;;
57093;SDS011;42970;50.996;3.706;2024-01-30T10:33:29;1.17;;;0.45;;
57093;SDS011;42970;50.996;3.706;2024-01-30T10:36:00;5.60;;;0.70;;
57093;SDS011;42970;50.996;3.706;2024-01-30T10:38:26;3.05;;;0.60;;
57093;SDS011;42970;50.996;3.706;2024-01-30T10:40:53;1.40;;;0.50;;
57093;SDS011;42970;50.996;3.706;2024-01-30T10:43:21;2.15;;;0.40;;
57093;SDS011;42970;50.996;3.706;2024-01-30T10:45:47;4.03;;;0.63;;
57093;SDS011;42970;50.996;3.706;2024-01-30T10:48:14;0.80;;;0.65;;
57093;SDS011;42970;50.996;3.706;2024-01-30T10:50:41;2.38;;;0.82;;
57093;SDS011;42970;50.996;3.706;2024-01-30T10:53:07;1.75;;;0.55;;
57093;SDS011;42970;50.996;3.706;2024-01-30T10:55:34;3.65;;;0.82;;
57093;SDS011;42970;50.996;3.706;2024-01-30T10:57:59;2.83;;;0.43;;
57093;SDS011;42970;50.996;3.706;2024-01-30T11:00:25;2.08;;;0.77;;
57093;SDS011;42970;50.996;3.706;2024-01-30T11:02:51;2.10;;;0.60;;
57093;SDS011;42970;50.996;3.706;2024-01-30T11:05:23;1.00;;;0.40;;
57093;SDS011;42970;50.996;3.706;2024-01-30T11:07:49;1.70;;;0.50;;
57093;SDS011;42970;50.996;3.706;2024-01-30T11:10:14;2.38;;;0.63;;
57093;SDS011;42970;50.996;3.706;2024-01-30T11:12:40;1.85;;;0.65;;
57093;SDS011;42970;50.996;3.706;2024-01-30T11:20:09;14.13;;;0.65;;
57093;SDS011;42970;50.996;3.706;2024-01-30T11:22:37;7.05;;;0.70;;
57093;SDS011;42970;50.996;3.706;2024-01-30T11:25:03;1.98;;;0.60;;
57093;SDS011;42970;50.996;3.706;2024-01-30T11:27:29;2.25;;;0.95;;
57093;SDS011;42970;50.996;3.706;2024-01-30T11:30:00;2.13;;;0.70;;
57093;SDS011;42970;50.996;3.706;2024-01-30T11:32:25;6.57;;;0.88;;
57093;SDS011;42970;50.996;3.706;2024-01-30T11:34:51;1.83;;;0.68;;
57093;SDS011;42970;50.996;3.706;2024-01-30T11:37:16;2.17;;;0.63;;
57093;SDS011;42970;50.996;3.706;2024-01-30T11:39:46;5.93;;;0.70;;
57093;SDS011;42970;50.996;3.706;2024-01-30T11:42:11;3.40;;;1.00;;
57093;SDS011;42970;50.996;3.706;2024-01-30T11:44:37;4.25;;;0.73;;
57093;SDS011;42970;50.996;3.706;2024-01-30T11:47:03;3.95;;;1.23;;
57093;SDS011;42970;50.996;3.706;2024-01-30T11:49:28;1.10;;;0.77;;
57093;SDS011;42970;50.996;3.706;2024-01-30T11:51:54;2.20;;;1.00;;
57093;SDS011;42970;50.996;3.706;2024-01-30T11:54:19;5.05;;;0.65;;
57093;SDS011;42970;50.996;3.706;2024-01-30T11:56:44;4.13;;;1.08;;
57093;SDS011;42970;50.996;3.706;2024-01-30T11:59:09;5.70;;;1.40;;
57093;SDS011;42970;50.996;3.706;2024-01-30T12:01:35;1.42;;;0.75;;
57093;SDS011;42970;50.996;3.706;2024-01-30T12:04:00;2.90;;;0.88;;
57093;SDS011;42970;50.996;3.706;2024-01-30T12:06:26;0.57;;;0.57;;
57093;SDS011;42970;50.996;3.706;2024-01-30T12:08:56;5.82;;;0.65;;
57093;SDS011;42970;50.996;3.706;2024-01-30T12:11:21;3.28;;;0.63;;
57093;SDS011;42970;50.996;3.706;2024-01-30T12:13:46;1.85;;;0.88;;
57093;SDS011;42970;50.996;3.706;2024-01-30T12:16:12;1.75;;;0.73;;
57093;SDS011;42970;50.996;3.706;2024-01-30T12:18:38;1.15;;;0.75;;
57093;SDS011;42970;50.996;3.706;2024-01-30T12:21:03;13.20;;;1.88;;
57093;SDS011;42970;50.996;3.706;2024-01-30T12:23:28;5.72;;;1.98;;
57093;SDS011;42970;50.996;3.706;2024-01-30T12:25:54;7.20;;;0.95;;
57093;SDS011;42970;50.996;3.706;2024-01-30T12:28:20;2.20;;;1.33;;
57093;SDS011;42970;50.996;3.706;2024-01-30T12:30:45;3.33;;;0.95;;
57093;SDS011;42970;50.996;3.706;2024-01-30T12:33:15;6.10;;;1.30;;
57093;SDS011;42970;50.996;3.706;2024-01-30T12:35:41;7.10;;;1.20;;
57093;SDS011;42970;50.996;3.706;2024-01-30T12:38:10;8.90;;;1.15;;
57093;SDS011;42970;50.996;3.706;2024-01-30T12:40:35;1.75;;;0.63;;
57093;SDS011;42970;50.996;3.706;2024-01-30T12:43:00;2.45;;;0.70;;
57093;SDS011;42970;50.996;3.706;2024-01-30T12:45:26;3.30;;;1.17;;
57093;SDS011;42970;50.996;3.706;2024-01-30T12:47:51;2.63;;;1.05;;
57093;SDS011;42970;50.996;3.706;2024-01-30T12:50:16;0.90;;;0.63;;
57093;SDS011;42970;50.996;3.706;2024-01-30T12:52:42;3.92;;;0.80;;
57093;SDS011;42970;50.996;3.706;2024-01-30T12:55:08;0.40;;;0.40;;
57093;SDS011;42970;50.996;3.706;2024-01-30T12:57:33;2.38;;;1.13;;
57093;SDS011;42970;50.996;3.706;2024-01-30T12:59:58;5.55;;;1.27;;
57093;SDS011;42970;50.996;3.706;2024-01-30T13:02:24;2.75;;;1.08;;
57093;SDS011;42970;50.996;3.706;2024-01-30T13:04:49;6.35;;;1.23;;
57093;SDS011;42970;50.996;3.706;2024-01-30T13:07:14;4.75;;;0.80;;
57093;SDS011;42970;50.996;3.706;2024-01-30T13:09:40;1.00;;;0.52;;
57093;SDS011;42970;50.996;3.706;2024-01-30T13:12:05;1.63;;;0.68;;
57093;SDS011;42970;50.996;3.706;2024-01-30T13:14:30;7.65;;;0.63;;
57093;SDS011;42970;50.996;3.706;2024-01-30T13:16:55;2.03;;;0.85;;
57093;SDS011;42970;50.996;3.706;2024-01-30T13:19:21;4.07;;;0.73;;
57093;SDS011;42970;50.996;3.706;2024-01-30T13:21:46;2.25;;;1.05;;
57093;SDS011;42970;50.996;3.706;2024-01-30T13:24:12;6.10;;;1.13;;
57093;SDS011;42970;50.996;3.706;2024-01-30T13:26:37;1.45;;;0.73;;
57093;SDS011;42970;50.996;3.706;2024-01-30T13:29:03;4.13;;;0.93;;
57093;SDS011;42970;50.996;3.706;2024-01-30T13:31:28;4.80;;;1.38;;
57093;SDS011;42970;50.996;3.706;2024-01-30T13:33:54;0.70;;;0.43;;
57093;SDS011;42970;50.996;3.706;2024-01-30T13:36:19;1.73;;;0.70;;
57093;SDS011;42970;50.996;3.706;2024-01-30T13:38:45;3.90;;;1.23;;
57093;SDS011;42970;50.996;3.706;2024-01-30T13:41:10;0.60;;;0.60;;
57093;SDS011;42970;50.996;3.706;2024-01-30T13:43:35;2.67;;;1.17;;
57093;SDS011;42970;50.996;3.706;2024-01-30T13:46:00;6.70;;;1.52;;
57093;SDS011;42970;50.996;3.706;2024-01-30T13:48:26;0.45;;;0.40;;
57093;SDS011;42970;50.996;3.706;2024-01-30T13:50:51;8.35;;;0.82;;
57093;SDS011;42970;50.996;3.706;2024-01-30T13:53:18;4.90;;;1.10;;
57093;SDS011;42970;50.996;3.706;2024-01-30T13:55:43;4.47;;;1.20;;
57093;SDS011;42970;50.996;3.706;2024-01-30T13:58:08;1.05;;;0.68;;
57093;SDS011;42970;50.996;3.706;2024-01-30T14:00:33;5.22;;;0.82;;
57093;SDS011;42970;50.996;3.706;2024-01-30T14:02:59;6.82;;;1.52;;
57093;SDS011;42970;50.996;3.706;2024-01-30T14:05:25;2.38;;;0.88;;
57093;SDS011;42970;50.996;3.706;2024-01-30T14:07:51;1.95;;;0.77;;
57093;SDS011;42970;50.996;3.706;2024-01-30T14:10:17;1.75;;;0.80;;
57093;SDS011;42970;50.996;3.706;2024-01-30T14:12:42;1.38;;;0.65;;
57093;SDS011;42970;50.996;3.706;2024-01-30T14:15:13;1.17;;;0.40;;
57093;SDS011;42970;50.996;3.706;2024-01-30T14:17:38;1.33;;;0.95;;
57093;SDS011;42970;50.996;3.706;2024-01-30T14:20:03;5.60;;;1.13;;
57093;SDS011;42970;50.996;3.706;2024-01-30T14:22:33;5.38;;;1.45;;
57093;SDS011;42970;50.996;3.706;2024-01-30T14:24:58;2.45;;;0.60;;
57093;SDS011;42970;50.996;3.706;2024-01-30T14:27:23;2.67;;;1.00;;
57093;SDS011;42970;50.996;3.706;2024-01-30T14:29:49;6.88;;;1.20;;
57093;SDS011;42970;50.996;3.706;2024-01-30T14:32:14;2.78;;;0.93;;
57093;SDS011;42970;50.996;3.706;2024-01-30T14:34:40;4.63;;;1.35;;
57093;SDS011;42970;50.996;3.706;2024-01-30T14:37:05;4.75;;;1.08;;